createdAt,value
2023-03-22T00:01:21.986Z,15.55
2023-03-22T00:03:50.729Z,15.54
2023-03-22T00:06:18.064Z,15.50
2023-03-22T00:08:45.895Z,15.47
2023-03-22T00:11:13.193Z,15.48
2023-03-22T00:13:43.065Z,15.48
2023-03-22T00:16:11.215Z,15.48
2023-03-22T00:18:39.830Z,15.46
2023-03-22T00:21:16.072Z,15.43
2023-03-22T00:23:43.622Z,15.38
2023-03-22T00:26:12.479Z,15.38
2023-03-22T00:28:39.816Z,15.37
2023-03-22T00:31:07.162Z,15.35
2023-03-22T00:33:34.237Z,15.35
2023-03-22T00:36:07.333Z,15.28
2023-03-22T00:38:42.432Z,15.28
2023-03-22T00:41:16.456Z,15.27
2023-03-22T00:43:46.148Z,15.27
2023-03-22T00:46:14.592Z,15.21
2023-03-22T00:48:41.785Z,15.18
2023-03-22T00:51:10.127Z,15.18
2023-03-22T00:53:41.846Z,15.16
2023-03-22T00:56:14.335Z,15.15
2023-03-22T00:59:17.052Z,15.10
2023-03-22T01:01:44.285Z,15.11
2023-03-22T01:04:18.105Z,15.09
2023-03-22T01:06:47.392Z,15.10
2023-03-22T01:09:15.399Z,15.07
2023-03-22T01:11:43.890Z,15.08
2023-03-22T01:14:14.046Z,15.07
2023-03-22T01:16:41.235Z,15.05
2023-03-22T01:19:08.814Z,15.05
2023-03-22T01:21:36.565Z,14.99
2023-03-22T01:24:03.754Z,14.96
2023-03-22T01:26:31.363Z,14.95
2023-03-22T01:28:58.511Z,14.94
2023-03-22T01:31:25.799Z,14.95
2023-03-22T01:33:52.747Z,14.90
2023-03-22T01:36:22.193Z,14.91
2023-03-22T01:38:49.142Z,14.90
2023-03-22T01:41:17.476Z,14.86
2023-03-22T01:43:45.478Z,14.82
2023-03-22T01:46:13.197Z,14.82
2023-03-22T01:48:46.311Z,14.80
2023-03-22T01:51:27.799Z,14.78
2023-03-22T01:54:10.897Z,14.77
2023-03-22T01:56:42.678Z,14.75
2023-03-22T01:59:16.264Z,14.75
2023-03-22T02:02:03.753Z,14.73
2023-03-22T02:04:36.880Z,14.72
2023-03-22T02:07:10.236Z,14.70
2023-03-22T02:09:42.449Z,14.68
2023-03-22T02:12:34.380Z,14.68
2023-03-22T02:15:17.043Z,14.65
2023-03-22T02:19:01.378Z,14.64
2023-03-22T02:22:26.066Z,14.57
2023-03-22T02:25:20.816Z,14.57
2023-03-22T02:28:15.857Z,14.55
2023-03-22T02:30:42.716Z,14.51
2023-03-22T02:33:32.021Z,14.54
2023-03-22T02:36:19.162Z,14.53
2023-03-22T02:39:12.169Z,14.50
2023-03-22T02:42:25.747Z,14.49
2023-03-22T02:45:06.468Z,14.47
2023-03-22T02:47:58.855Z,14.45
2023-03-22T02:50:50.637Z,14.45
2023-03-22T02:53:26.468Z,14.43
2023-03-22T02:56:05.923Z,14.42
2023-03-22T02:58:45.747Z,14.41
2023-03-22T03:01:23.808Z,14.38
2023-03-22T03:03:55.416Z,14.33
2023-03-22T03:06:25.920Z,14.35
2023-03-22T03:08:54.701Z,14.33
2023-03-22T03:11:21.685Z,14.31
2023-03-22T03:13:51.218Z,14.28
2023-03-22T03:16:21.877Z,14.27
2023-03-22T03:19:00.839Z,14.27
2023-03-22T03:21:51.970Z,14.26
2023-03-22T03:24:34.871Z,14.23
2023-03-22T03:27:10.069Z,14.19
2023-03-22T03:30:16.911Z,14.18
2023-03-22T03:32:59.395Z,14.14
2023-03-22T03:35:32.638Z,14.14
2023-03-22T03:38:08.868Z,14.11
2023-03-22T03:40:44.385Z,14.10
2023-03-22T03:43:12.501Z,14.08
2023-03-22T03:45:40.574Z,14.07
2023-03-22T03:48:23.860Z,14.05
2023-03-22T03:50:53.572Z,14.02
2023-03-22T03:53:20.766Z,14.01
2023-03-22T03:55:47.715Z,14.00
2023-03-22T03:58:18.100Z,13.99
2023-03-22T04:00:47.932Z,13.97
2023-03-22T04:03:21.000Z,13.94
2023-03-22T04:06:14.036Z,13.93
2023-03-22T04:08:45.997Z,13.91
2023-03-22T04:11:15.854Z,13.90
2023-03-22T04:13:44.674Z,13.87
2023-03-22T04:16:16.555Z,13.86
2023-03-22T04:18:43.567Z,13.88
2023-03-22T04:21:12.278Z,13.86
2023-03-22T04:24:00.300Z,13.82
2023-03-22T04:26:30.038Z,13.81
2023-03-22T04:29:15.327Z,13.80
2023-03-22T04:31:47.178Z,13.78
2023-03-22T04:34:19.744Z,13.78
2023-03-22T04:37:02.649Z,13.74
2023-03-22T04:39:34.851Z,13.73
2023-03-22T04:42:25.668Z,13.69
2023-03-22T04:45:04.265Z,13.70
2023-03-22T04:47:32.212Z,13.69
2023-03-22T04:50:00.308Z,13.70
2023-03-22T04:52:30.584Z,13.67
2023-03-22T04:54:57.566Z,13.68
2023-03-22T04:57:24.880Z,13.65
2023-03-22T04:59:52.485Z,13.62
2023-03-22T05:02:19.823Z,13.58
2023-03-22T05:04:48.354Z,13.58
2023-03-22T05:07:28.715Z,13.57
2023-03-22T05:09:58.640Z,13.56
2023-03-22T05:12:25.862Z,13.52
2023-03-22T05:15:06.854Z,13.52
2023-03-22T05:17:37.698Z,13.48
2023-03-22T05:20:10.392Z,13.40
2023-03-22T05:22:41.113Z,13.39
2023-03-22T05:25:11.362Z,13.37
2023-03-22T05:27:43.641Z,13.35
2023-03-22T05:30:34.113Z,13.35
2023-03-22T05:33:08.155Z,13.34
2023-03-22T05:35:41.939Z,13.37
2023-03-22T05:38:10.810Z,13.35
2023-03-22T05:40:42.127Z,13.32
2023-03-22T05:43:09.072Z,13.28
2023-03-22T05:45:37.554Z,13.27
2023-03-22T05:48:12.740Z,13.24
2023-03-22T05:50:40.995Z,13.21
2023-03-22T05:53:08.730Z,13.23
2023-03-22T05:55:50.237Z,13.25
2023-03-22T05:58:19.298Z,13.27
2023-03-22T06:00:51.566Z,13.34
2023-03-22T06:03:18.573Z,13.48
2023-03-22T06:05:54.950Z,13.64
2023-03-22T06:08:35.644Z,13.86
2023-03-22T06:11:02.905Z,14.07
2023-03-22T06:13:30.108Z,14.35
2023-03-22T06:16:01.502Z,14.64
2023-03-22T06:18:29.694Z,14.84
2023-03-22T06:21:03.148Z,15.23
2023-03-22T06:23:30.325Z,15.62
2023-03-22T06:25:57.270Z,16.00
2023-03-22T06:28:26.668Z,16.36
2023-03-22T06:30:54.885Z,16.76
2023-03-22T06:33:31.612Z,17.20
2023-03-22T06:36:09.361Z,17.71
2023-03-22T06:38:46.379Z,18.15
2023-03-22T06:41:13.493Z,18.54
2023-03-22T06:43:40.471Z,18.91
2023-03-22T06:46:22.091Z,19.32
2023-03-22T06:48:58.214Z,19.70
2023-03-22T06:51:25.488Z,20.14
2023-03-22T06:53:53.326Z,20.60
2023-03-22T06:56:20.689Z,21.09
2023-03-22T06:58:52.074Z,21.51
2023-03-22T07:01:19.626Z,21.89
2023-03-22T07:03:46.800Z,22.37
2023-03-22T07:06:16.097Z,22.77
2023-03-22T07:08:46.832Z,23.16
2023-03-22T07:11:17.962Z,23.60
2023-03-22T07:13:55.829Z,24.13
2023-03-22T07:16:23.157Z,24.38
2023-03-22T07:18:53.399Z,24.92
2023-03-22T07:21:20.314Z,25.34
2023-03-22T07:23:52.077Z,25.80
2023-03-22T07:26:21.686Z,26.22
2023-03-22T07:28:50.030Z,26.60
2023-03-22T07:31:18.388Z,26.78
2023-03-22T07:34:00.995Z,27.23
2023-03-22T07:36:31.139Z,27.75
2023-03-22T07:38:58.332Z,27.98
2023-03-22T07:41:30.763Z,28.42
2023-03-22T07:44:30.145Z,28.84
2023-03-22T07:47:15.721Z,29.37
2023-03-22T07:49:56.756Z,29.65
2023-03-22T07:52:27.163Z,29.98
2023-03-22T07:54:54.228Z,30.38
2023-03-22T07:57:21.099Z,30.73
2023-03-22T07:59:54.518Z,31.03
2023-03-22T08:02:23.827Z,31.47
2023-03-22T08:04:56.494Z,31.84
2023-03-22T08:07:51.542Z,32.36
2023-03-22T08:10:18.593Z,32.86
2023-03-22T08:12:45.575Z,33.36
2023-03-22T08:15:20.796Z,33.66
2023-03-22T08:17:49.945Z,34.02
2023-03-22T08:20:28.744Z,34.51
2023-03-22T08:23:01.153Z,34.79
2023-03-22T08:26:03.330Z,35.20
2023-03-22T08:28:32.286Z,35.32
2023-03-22T08:30:59.465Z,35.36
2023-03-22T08:33:26.578Z,35.52
2023-03-22T08:36:04.814Z,35.69
2023-03-22T08:38:32.478Z,35.97
2023-03-22T08:40:59.482Z,35.81
2023-03-22T08:43:26.490Z,36.18
2023-03-22T08:45:53.953Z,36.09
2023-03-22T08:48:21.263Z,35.87
2023-03-22T08:51:03.131Z,35.92
2023-03-22T08:53:40.510Z,36.21
2023-03-22T08:56:27.450Z,36.12
2023-03-22T08:59:09.935Z,36.34
2023-03-22T09:01:51.988Z,36.56
2023-03-22T09:04:19.425Z,36.93
2023-03-22T09:06:47.115Z,37.68
2023-03-22T09:09:15.245Z,38.40
2023-03-22T09:11:44.906Z,38.82
2023-03-22T09:14:11.956Z,39.24
2023-03-22T09:16:39.067Z,39.27
2023-03-22T09:19:06.833Z,39.62
2023-03-22T09:21:34.579Z,39.56
2023-03-22T09:24:14.219Z,40.09
2023-03-22T09:26:47.521Z,40.55
2023-03-22T09:29:17.629Z,39.68
2023-03-22T09:31:48.896Z,39.96
2023-03-22T09:34:22.886Z,39.78
2023-03-22T09:36:49.920Z,40.28
2023-03-22T09:39:20.243Z,40.10
2023-03-22T09:41:58.275Z,40.90
2023-03-22T09:44:40.357Z,40.53
2023-03-22T09:47:33.190Z,41.07
2023-03-22T09:50:16.043Z,41.84
2023-03-22T09:52:44.015Z,41.82
2023-03-22T09:55:37.479Z,41.03
2023-03-22T09:58:21.353Z,41.06
2023-03-22T10:00:58.473Z,40.98
2023-03-22T10:03:53.131Z,39.49
2023-03-22T10:06:25.578Z,39.74
2023-03-22T10:09:16.885Z,39.54
2023-03-22T10:11:52.541Z,40.51
2023-03-22T10:14:41.485Z,41.08
2023-03-22T10:17:18.677Z,41.39
2023-03-22T10:20:08.779Z,41.76
2023-03-22T10:22:41.034Z,41.66
2023-03-22T10:25:09.651Z,41.60
2023-03-22T10:27:37.660Z,41.67
2023-03-22T10:30:19.897Z,41.66
2023-03-22T10:32:58.163Z,41.76
2023-03-22T10:35:26.245Z,41.51
2023-03-22T10:37:56.565Z,41.68
2023-03-22T10:40:29.886Z,41.86
2023-03-22T10:43:01.933Z,42.03
2023-03-22T10:45:32.096Z,41.83
2023-03-22T10:48:11.905Z,40.45
2023-03-22T10:50:42.323Z,40.54
2023-03-22T10:53:23.201Z,40.08
2023-03-22T10:55:50.443Z,39.65
2023-03-22T10:58:19.971Z,39.60
2023-03-22T11:00:52.304Z,39.23
2023-03-22T11:03:51.607Z,39.44
2023-03-22T11:06:25.996Z,39.33
2023-03-22T11:08:57.356Z,39.05
2023-03-22T11:11:27.193Z,38.77
2023-03-22T11:14:06.462Z,38.34
2023-03-22T11:16:44.425Z,38.30
2023-03-22T11:19:18.470Z,37.87
2023-03-22T11:21:45.829Z,37.37
2023-03-22T11:24:15.766Z,36.85
2023-03-22T11:26:45.037Z,36.41
2023-03-22T11:29:18.659Z,36.44
2023-03-22T11:31:59.229Z,36.00
2023-03-22T11:34:29.368Z,35.10
2023-03-22T11:37:00.452Z,34.25
2023-03-22T11:39:29.834Z,33.05
2023-03-22T11:42:00.266Z,32.20
2023-03-22T11:44:32.025Z,31.26
2023-03-22T11:47:01.223Z,30.71
2023-03-22T11:49:59.996Z,29.93
2023-03-22T11:52:28.065Z,29.35
2023-03-22T11:54:56.340Z,28.64
2023-03-22T11:57:26.606Z,28.04
2023-03-22T12:00:21.551Z,27.42
2023-03-22T12:02:54.983Z,26.75
2023-03-22T12:05:27.365Z,26.59
2023-03-22T12:08:38.936Z,26.34
2023-03-22T12:11:11.178Z,26.14
2023-03-22T12:13:53.477Z,25.91
2023-03-22T12:16:28.479Z,25.68
2023-03-22T12:19:22.696Z,25.61
2023-03-22T12:21:51.675Z,25.37
2023-03-22T12:24:36.756Z,24.99
2023-03-22T12:27:27.374Z,24.80
2023-03-22T12:30:04.331Z,24.71
2023-03-22T12:32:38.814Z,24.49
2023-03-22T12:35:17.318Z,24.39
2023-03-22T12:37:50.873Z,24.33
2023-03-22T12:40:26.250Z,24.39
2023-03-22T12:43:08.261Z,24.40
2023-03-22T12:45:42.756Z,24.42
2023-03-22T12:48:21.940Z,24.38
2023-03-22T12:50:56.096Z,24.43
2023-03-22T12:53:28.206Z,24.45
2023-03-22T12:55:56.319Z,24.45
2023-03-22T12:58:26.284Z,24.49
2023-03-22T13:00:58.745Z,24.30
2023-03-22T13:03:38.713Z,24.19
2023-03-22T13:06:27.373Z,24.09
2023-03-22T13:09:17.111Z,23.91
2023-03-22T13:11:49.831Z,23.52
2023-03-22T13:14:51.454Z,23.42
2023-03-22T13:17:24.890Z,23.45
2023-03-22T13:20:23.807Z,23.48
2023-03-22T13:22:53.210Z,23.33
2023-03-22T13:25:40.015Z,23.27
2023-03-22T13:28:28.300Z,23.26
2023-03-22T13:30:58.422Z,23.23
2023-03-22T13:33:29.880Z,23.22
2023-03-22T13:36:01.533Z,23.19
2023-03-22T13:38:42.853Z,23.17
2023-03-22T13:41:24.653Z,23.03
2023-03-22T13:43:54.815Z,23.11
2023-03-22T13:46:21.816Z,22.81
2023-03-22T13:48:49.317Z,22.61
2023-03-22T13:51:23.037Z,22.55
2023-03-22T13:54:16.597Z,22.52
2023-03-22T13:57:01.564Z,22.58
2023-03-22T13:59:29.911Z,22.46
2023-03-22T14:02:00.696Z,22.44
2023-03-22T14:04:42.729Z,22.34
2023-03-22T14:07:40.717Z,22.41
2023-03-22T14:10:33.089Z,22.30
2023-03-22T14:13:06.488Z,22.12
2023-03-22T14:15:40.634Z,22.10
2023-03-22T14:18:31.821Z,22.08
2023-03-22T14:21:02.195Z,22.16
